sensor_id;sensor_type;location;lat;lon;timestamp;P1;durP1;ratioP1;P2;durP2;ratioP2
15567;SDS011;7885;42.596;23.044;2024-03-02T00:02:04;47.10;;;32.40;;
15567;SDS011;7885;42.596;23.044;2024-03-02T00:04:33;43.77;;;32.63;;
15567;SDS011;7885;42.596;23.044;2024-03-02T00:07:00;44.47;;;33.00;;
15567;SDS011;7885;42.596;23.044;2024-03-02T00:09:28;41.07;;;31.50;;
15567;SDS011;7885;42.596;23.044;2024-03-02T00:11:55;39.47;;;31.80;;
15567;SDS011;7885;42.596;23.044;2024-03-02T00:14:22;40.33;;;31.70;;
15567;SDS011;7885;42.596;23.044;2024-03-02T00:23:33;36.03;;;28.20;;
15567;SDS011;7885;42.596;23.044;2024-03-02T00:26:01;35.07;;;27.53;;
15567;SDS011;7885;42.596;23.044;2024-03-02T00:28:29;34.40;;;26.77;;
15567;SDS011;7885;42.596;23.044;2024-03-02T00:30:59;33.63;;;26.67;;
15567;SDS011;7885;42.596;23.044;2024-03-02T00:36:51;32.23;;;25.00;;
15567;SDS011;7885;42.596;23.044;2024-03-02T00:39:19;31.70;;;24.40;;
15567;SDS011;7885;42.596;23.044;2024-03-02T00:41:46;34.20;;;25.03;;
15567;SDS011;7885;42.596;23.044;2024-03-02T00:44:12;32.73;;;25.23;;
15567;SDS011;7885;42.596;23.044;2024-03-02T00:46:41;31.60;;;24.53;;
15567;SDS011;7885;42.596;23.044;2024-03-02T00:49:11;34.07;;;24.90;;
15567;SDS011;7885;42.596;23.044;2024-03-02T00:51:45;31.73;;;24.93;;
15567;SDS011;7885;42.596;23.044;2024-03-02T00:54:13;29.67;;;22.70;;
15567;SDS011;7885;42.596;23.044;2024-03-02T00:56:42;31.53;;;23.83;;
15567;SDS011;7885;42.596;23.044;2024-03-02T00:59:10;32.93;;;24.27;;
15567;SDS011;7885;42.596;23.044;2024-03-02T01:01:37;32.60;;;24.57;;
15567;SDS011;7885;42.596;23.044;2024-03-02T01:04:03;34.07;;;26.53;;
15567;SDS011;7885;42.596;23.044;2024-03-02T01:06:30;32.37;;;24.67;;
15567;SDS011;7885;42.596;23.044;2024-03-02T01:08:57;32.77;;;23.73;;
15567;SDS011;7885;42.596;23.044;2024-03-02T01:11:24;31.10;;;24.47;;
15567;SDS011;7885;42.596;23.044;2024-03-02T01:13:52;32.63;;;25.13;;
15567;SDS011;7885;42.596;23.044;2024-03-02T01:16:19;27.07;;;23.57;;
15567;SDS011;7885;42.596;23.044;2024-03-02T01:18:46;29.50;;;24.47;;
15567;SDS011;7885;42.596;23.044;2024-03-02T01:21:11;29.73;;;23.93;;
15567;SDS011;7885;42.596;23.044;2024-03-02T01:30:23;28.57;;;22.20;;
15567;SDS011;7885;42.596;23.044;2024-03-02T01:32:50;27.23;;;22.27;;
15567;SDS011;7885;42.596;23.044;2024-03-02T01:35:16;29.87;;;24.00;;
15567;SDS011;7885;42.596;23.044;2024-03-02T01:37:43;29.43;;;23.10;;
15567;SDS011;7885;42.596;23.044;2024-03-02T01:40:10;32.00;;;25.03;;
15567;SDS011;7885;42.596;23.044;2024-03-02T01:42:38;31.00;;;24.27;;
15567;SDS011;7885;42.596;23.044;2024-03-02T01:45:05;34.17;;;24.93;;
15567;SDS011;7885;42.596;23.044;2024-03-02T01:54:18;29.77;;;23.83;;
15567;SDS011;7885;42.596;23.044;2024-03-02T01:56:45;29.07;;;22.50;;
15567;SDS011;7885;42.596;23.044;2024-03-02T01:59:11;29.50;;;23.33;;
15567;SDS011;7885;42.596;23.044;2024-03-02T02:01:38;30.60;;;23.97;;
15567;SDS011;7885;42.596;23.044;2024-03-02T02:10:50;34.80;;;25.17;;
15567;SDS011;7885;42.596;23.044;2024-03-02T02:13:16;33.57;;;25.23;;
15567;SDS011;7885;42.596;23.044;2024-03-02T02:15:43;32.53;;;25.67;;
15567;SDS011;7885;42.596;23.044;2024-03-02T02:18:10;30.43;;;23.50;;
15567;SDS011;7885;42.596;23.044;2024-03-02T02:20:37;32.87;;;26.03;;
15567;SDS011;7885;42.596;23.044;2024-03-02T02:23:05;34.87;;;26.17;;
15567;SDS011;7885;42.596;23.044;2024-03-02T02:28:54;30.20;;;22.93;;
15567;SDS011;7885;42.596;23.044;2024-03-02T02:31:21;29.57;;;23.00;;
15567;SDS011;7885;42.596;23.044;2024-03-02T02:33:48;32.93;;;25.13;;
15567;SDS011;7885;42.596;23.044;2024-03-02T02:36:14;30.60;;;26.00;;
15567;SDS011;7885;42.596;23.044;2024-03-02T02:38:44;31.13;;;23.73;;
15567;SDS011;7885;42.596;23.044;2024-03-02T02:41:11;30.80;;;24.77;;
15567;SDS011;7885;42.596;23.044;2024-03-02T02:43:38;32.03;;;24.93;;
15567;SDS011;7885;42.596;23.044;2024-03-02T02:46:05;30.90;;;24.37;;
15567;SDS011;7885;42.596;23.044;2024-03-02T02:48:32;33.03;;;25.53;;
15567;SDS011;7885;42.596;23.044;2024-03-02T02:50:58;32.73;;;25.47;;
15567;SDS011;7885;42.596;23.044;2024-03-02T02:53:25;29.33;;;22.87;;
15567;SDS011;7885;42.596;23.044;2024-03-02T02:55:53;27.80;;;23.13;;
15567;SDS011;7885;42.596;23.044;2024-03-02T02:58:20;31.43;;;23.50;;
15567;SDS011;7885;42.596;23.044;2024-03-02T03:00:46;28.47;;;23.70;;
15567;SDS011;7885;42.596;23.044;2024-03-02T03:03:13;29.17;;;22.73;;
15567;SDS011;7885;42.596;23.044;2024-03-02T03:05:40;29.13;;;23.60;;
15567;SDS011;7885;42.596;23.044;2024-03-02T03:08:07;29.80;;;23.63;;
15567;SDS011;7885;42.596;23.044;2024-03-02T03:10:33;30.70;;;24.40;;
15567;SDS011;7885;42.596;23.044;2024-03-02T03:13:01;30.47;;;24.40;;
15567;SDS011;7885;42.596;23.044;2024-03-02T03:15:28;32.87;;;25.33;;
15567;SDS011;7885;42.596;23.044;2024-03-02T03:17:55;32.60;;;24.17;;
15567;SDS011;7885;42.596;23.044;2024-03-02T03:20:22;33.33;;;24.67;;
15567;SDS011;7885;42.596;23.044;2024-03-02T03:22:49;32.33;;;24.20;;
15567;SDS011;7885;42.596;23.044;2024-03-02T03:25:16;29.57;;;23.70;;
15567;SDS011;7885;42.596;23.044;2024-03-02T03:27:43;31.97;;;24.50;;
15567;SDS011;7885;42.596;23.044;2024-03-02T03:30:12;30.50;;;23.63;;
15567;SDS011;7885;42.596;23.044;2024-03-02T03:42:45;31.93;;;25.43;;
15567;SDS011;7885;42.596;23.044;2024-03-02T03:45:13;31.00;;;25.53;;
15567;SDS011;7885;42.596;23.044;2024-03-02T03:47:40;30.23;;;24.20;;
15567;SDS011;7885;42.596;23.044;2024-03-02T03:50:07;31.93;;;24.10;;
15567;SDS011;7885;42.596;23.044;2024-03-02T03:52:34;30.60;;;24.63;;
15567;SDS011;7885;42.596;23.044;2024-03-02T03:55:01;34.07;;;25.07;;
15567;SDS011;7885;42.596;23.044;2024-03-02T04:00:50;30.83;;;24.57;;
15567;SDS011;7885;42.596;23.044;2024-03-02T04:03:17;30.83;;;25.17;;
15567;SDS011;7885;42.596;23.044;2024-03-02T04:05:44;32.97;;;25.03;;
15567;SDS011;7885;42.596;23.044;2024-03-02T04:08:10;30.37;;;24.37;;
15567;SDS011;7885;42.596;23.044;2024-03-02T04:10:37;30.47;;;24.30;;
15567;SDS011;7885;42.596;23.044;2024-03-02T04:13:05;30.90;;;23.87;;
15567;SDS011;7885;42.596;23.044;2024-03-02T04:15:32;30.47;;;23.50;;
15567;SDS011;7885;42.596;23.044;2024-03-02T04:18:00;32.77;;;25.73;;
15567;SDS011;7885;42.596;23.044;2024-03-02T04:20:27;35.93;;;25.73;;
15567;SDS011;7885;42.596;23.044;2024-03-02T04:22:54;32.33;;;25.13;;
15567;SDS011;7885;42.596;23.044;2024-03-02T04:25:21;32.40;;;25.60;;
15567;SDS011;7885;42.596;23.044;2024-03-02T04:27:48;33.73;;;25.07;;
15567;SDS011;7885;42.596;23.044;2024-03-02T04:30:15;36.00;;;27.20;;
15567;SDS011;7885;42.596;23.044;2024-03-02T04:32:41;33.17;;;25.27;;
15567;SDS011;7885;42.596;23.044;2024-03-02T04:35:12;34.20;;;26.07;;
15567;SDS011;7885;42.596;23.044;2024-03-02T04:37:39;36.53;;;27.30;;
15567;SDS011;7885;42.596;23.044;2024-03-02T04:40:06;33.33;;;25.80;;
15567;SDS011;7885;42.596;23.044;2024-03-02T04:42:34;33.43;;;26.30;;
15567;SDS011;7885;42.596;23.044;2024-03-02T04:45:00;34.47;;;27.47;;
15567;SDS011;7885;42.596;23.044;2024-03-02T04:47:28;31.57;;;26.13;;
15567;SDS011;7885;42.596;23.044;2024-03-02T04:49:55;32.63;;;26.27;;
15567;SDS011;7885;42.596;23.044;2024-03-02T05:17:12;29.03;;;23.10;;
15567;SDS011;7885;42.596;23.044;2024-03-02T05:19:38;30.27;;;24.83;;
15567;SDS011;7885;42.596;23.044;2024-03-02T05:22:05;34.00;;;27.13;;
15567;SDS011;7885;42.596;23.044;2024-03-02T05:24:32;33.67;;;26.90;;
15567;SDS011;7885;42.596;23.044;2024-03-02T05:26:59;33.80;;;26.90;;
15567;SDS011;7885;42.596;23.044;2024-03-02T05:29:25;30.23;;;25.27;;
15567;SDS011;7885;42.596;23.044;2024-03-02T05:31:52;32.63;;;25.80;;
15567;SDS011;7885;42.596;23.044;2024-03-02T05:34:20;31.00;;;24.83;;
15567;SDS011;7885;42.596;23.044;2024-03-02T05:36:47;30.70;;;25.33;;
15567;SDS011;7885;42.596;23.044;2024-03-02T05:39:13;30.03;;;25.00;;
15567;SDS011;7885;42.596;23.044;2024-03-02T05:41:40;30.57;;;24.47;;
15567;SDS011;7885;42.596;23.044;2024-03-02T05:44:07;34.40;;;26.17;;
15567;SDS011;7885;42.596;23.044;2024-03-02T06:00:02;31.17;;;23.90;;
15567;SDS011;7885;42.596;23.044;2024-03-02T06:02:33;31.37;;;24.77;;
15567;SDS011;7885;42.596;23.044;2024-03-02T06:05:00;29.37;;;24.00;;
15567;SDS011;7885;42.596;23.044;2024-03-02T06:07:27;31.67;;;24.20;;
15567;SDS011;7885;42.596;23.044;2024-03-02T06:09:53;27.27;;;22.63;;
15567;SDS011;7885;42.596;23.044;2024-03-02T06:12:20;28.53;;;23.53;;
15567;SDS011;7885;42.596;23.044;2024-03-02T06:18:16;27.13;;;22.70;;
15567;SDS011;7885;42.596;23.044;2024-03-02T06:20:43;25.80;;;23.00;;
15567;SDS011;7885;42.596;23.044;2024-03-02T06:23:10;31.27;;;25.13;;
15567;SDS011;7885;42.596;23.044;2024-03-02T06:25:37;31.27;;;25.97;;
15567;SDS011;7885;42.596;23.044;2024-03-02T06:28:04;28.60;;;23.57;;
15567;SDS011;7885;42.596;23.044;2024-03-02T06:33:53;28.27;;;23.43;;
15567;SDS011;7885;42.596;23.044;2024-03-02T06:36:20;29.80;;;24.43;;
15567;SDS011;7885;42.596;23.044;2024-03-02T06:38:48;26.77;;;23.33;;
15567;SDS011;7885;42.596;23.044;2024-03-02T06:41:15;27.27;;;23.77;;
15567;SDS011;7885;42.596;23.044;2024-03-02T06:43:41;25.67;;;21.83;;
15567;SDS011;7885;42.596;23.044;2024-03-02T06:46:08;25.70;;;21.23;;
15567;SDS011;7885;42.596;23.044;2024-03-02T06:48:39;25.63;;;20.63;;
15567;SDS011;7885;42.596;23.044;2024-03-02T06:51:07;25.50;;;20.93;;
15567;SDS011;7885;42.596;23.044;2024-03-02T06:53:34;27.87;;;22.07;;
15567;SDS011;7885;42.596;23.044;2024-03-02T06:56:01;27.00;;;21.97;;
15567;SDS011;7885;42.596;23.044;2024-03-02T06:58:27;27.77;;;22.70;;
15567;SDS011;7885;42.596;23.044;2024-03-02T07:00:54;30.17;;;26.40;;
15567;SDS011;7885;42.596;23.044;2024-03-02T07:03:21;43.47;;;38.00;;
15567;SDS011;7885;42.596;23.044;2024-03-02T07:12:32;25.37;;;21.13;;
15567;SDS011;7885;42.596;23.044;2024-03-02T07:14:59;23.47;;;19.50;;
15567;SDS011;7885;42.596;23.044;2024-03-02T07:17:50;23.37;;;19.77;;
15567;SDS011;7885;42.596;23.044;2024-03-02T07:20:16;25.10;;;21.60;;
15567;SDS011;7885;42.596;23.044;2024-03-02T07:22:43;23.93;;;21.17;;
15567;SDS011;7885;42.596;23.044;2024-03-02T07:25:10;25.17;;;22.47;;
15567;SDS011;7885;42.596;23.044;2024-03-02T07:27:38;21.87;;;18.73;;
15567;SDS011;7885;42.596;23.044;2024-03-02T07:30:05;21.57;;;19.27;;
15567;SDS011;7885;42.596;23.044;2024-03-02T07:32:33;22.10;;;18.67;;
15567;SDS011;7885;42.596;23.044;2024-03-02T07:35:00;21.17;;;18.20;;
15567;SDS011;7885;42.596;23.044;2024-03-02T07:37:28;20.00;;;17.57;;
15567;SDS011;7885;42.596;23.044;2024-03-02T07:50:02;23.73;;;19.60;;
15567;SDS011;7885;42.596;23.044;2024-03-02T07:52:31;25.10;;;20.93;;
15567;SDS011;7885;42.596;23.044;2024-03-02T07:54:58;28.50;;;21.70;;
15567;SDS011;7885;42.596;23.044;2024-03-02T07:57:24;27.63;;;23.53;;
15567;SDS011;7885;42.596;23.044;2024-03-02T07:59:51;27.33;;;22.93;;
15567;SDS011;7885;42.596;23.044;2024-03-02T08:02:18;28.33;;;23.13;;
15567;SDS011;7885;42.596;23.044;2024-03-02T08:04:45;36.90;;;29.77;;
15567;SDS011;7885;42.596;23.044;2024-03-02T08:07:13;33.33;;;24.43;;
15567;SDS011;7885;42.596;23.044;2024-03-02T08:09:40;38.03;;;26.47;;
15567;SDS011;7885;42.596;23.044;2024-03-02T08:12:07;47.47;;;31.03;;
15567;SDS011;7885;42.596;23.044;2024-03-02T08:14:34;36.33;;;24.30;;
15567;SDS011;7885;42.596;23.044;2024-03-02T08:17:00;37.10;;;26.17;;
15567;SDS011;7885;42.596;23.044;2024-03-02T08:19:27;24.80;;;19.83;;
15567;SDS011;7885;42.596;23.044;2024-03-02T08:28:39;17.10;;;15.23;;
15567;SDS011;7885;42.596;23.044;2024-03-02T08:31:06;17.13;;;13.67;;
15567;SDS011;7885;42.596;23.044;2024-03-02T08:33:33;20.47;;;16.90;;
15567;SDS011;7885;42.596;23.044;2024-03-02T08:35:59;18.83;;;16.37;;
15567;SDS011;7885;42.596;23.044;2024-03-02T08:38:26;18.27;;;16.30;;
15567;SDS011;7885;42.596;23.044;2024-03-02T08:40:53;15.00;;;13.07;;
15567;SDS011;7885;42.596;23.044;2024-03-02T08:43:20;15.13;;;11.90;;
15567;SDS011;7885;42.596;23.044;2024-03-02T08:45:49;14.93;;;12.70;;
15567;SDS011;7885;42.596;23.044;2024-03-02T08:48:16;13.67;;;12.00;;
15567;SDS011;7885;42.596;23.044;2024-03-02T08:50:42;15.27;;;12.90;;
15567;SDS011;7885;42.596;23.044;2024-03-02T08:53:09;14.80;;;12.97;;
15567;SDS011;7885;42.596;23.044;2024-03-02T08:55:36;18.13;;;15.83;;
15567;SDS011;7885;42.596;23.044;2024-03-02T08:58:03;16.67;;;14.87;;
15567;SDS011;7885;42.596;23.044;2024-03-02T09:00:30;16.80;;;14.93;;
15567;SDS011;7885;42.596;23.044;2024-03-02T09:02:58;15.93;;;14.23;;
15567;SDS011;7885;42.596;23.044;2024-03-02T09:05:24;14.57;;;13.07;;
15567;SDS011;7885;42.596;23.044;2024-03-02T09:07:51;12.67;;;11.40;;
15567;SDS011;7885;42.596;23.044;2024-03-02T09:13:40;12.13;;;10.90;;
15567;SDS011;7885;42.596;23.044;2024-03-02T09:16:07;12.80;;;11.30;;
15567;SDS011;7885;42.596;23.044;2024-03-02T09:18:37;11.10;;;10.00;;
15567;SDS011;7885;42.596;23.044;2024-03-02T09:21:04;12.57;;;11.30;;
15567;SDS011;7885;42.596;23.044;2024-03-02T09:23:31;16.03;;;13.87;;
15567;SDS011;7885;42.596;23.044;2024-03-02T09:25:58;12.50;;;11.20;;
15567;SDS011;7885;42.596;23.044;2024-03-02T09:28:25;13.57;;;12.17;;
15567;SDS011;7885;42.596;23.044;2024-03-02T09:44:47;12.27;;;11.03;;
15567;SDS011;7885;42.596;23.044;2024-03-02T09:47:14;13.23;;;11.90;;
15567;SDS011;7885;42.596;23.044;2024-03-02T09:49:41;15.00;;;11.73;;
15567;SDS011;7885;42.596;23.044;2024-03-02T09:52:08;12.40;;;11.10;;
15567;SDS011;7885;42.596;23.044;2024-03-02T09:54:36;18.47;;;16.57;;
15567;SDS011;7885;42.596;23.044;2024-03-02T09:57:03;12.57;;;11.10;;
15567;SDS011;7885;42.596;23.044;2024-03-02T09:59:30;16.57;;;13.10;;
15567;SDS011;7885;42.596;23.044;2024-03-02T10:01:59;16.27;;;14.57;;
15567;SDS011;7885;42.596;23.044;2024-03-02T10:04:27;18.60;;;16.63;;
15567;SDS011;7885;42.596;23.044;2024-03-02T10:09:39;16.20;;;14.50;;
15567;SDS011;7885;42.596;23.044;2024-03-02T10:12:07;14.93;;;13.43;;
15567;SDS011;7885;42.596;23.044;2024-03-02T10:14:36;14.97;;;12.77;;
15567;SDS011;7885;42.596;23.044;2024-03-02T10:17:05;14.00;;;12.50;;
15567;SDS011;7885;42.596;23.044;2024-03-02T10:19:32;15.27;;;13.77;;
15567;SDS011;7885;42.596;23.044;2024-03-02T10:22:00;14.73;;;13.10;;
15567;SDS011;7885;42.596;23.044;2024-03-02T10:24:28;15.33;;;13.53;;
15567;SDS011;7885;42.596;23.044;2024-03-02T10:27:02;14.40;;;12.90;;
15567;SDS011;7885;42.596;23.044;2024-03-02T10:29:33;13.63;;;12.23;;
15567;SDS011;7885;42.596;23.044;2024-03-02T10:32:02;14.93;;;13.37;;
15567;SDS011;7885;42.596;23.044;2024-03-02T10:34:30;17.57;;;15.87;;
15567;SDS011;7885;42.596;23.044;2024-03-02T10:36:57;16.03;;;14.33;;
15567;SDS011;7885;42.596;23.044;2024-03-02T10:39:24;16.70;;;14.90;;
15567;SDS011;7885;42.596;23.044;2024-03-02T10:41:52;20.43;;;17.20;;
15567;SDS011;7885;42.596;23.044;2024-03-02T10:44:21;21.53;;;16.73;;
15567;SDS011;7885;42.596;23.044;2024-03-02T10:46:49;24.63;;;17.13;;
15567;SDS011;7885;42.596;23.044;2024-03-02T10:49:16;15.80;;;13.73;;
15567;SDS011;7885;42.596;23.044;2024-03-02T10:51:44;20.27;;;14.70;;
15567;SDS011;7885;42.596;23.044;2024-03-02T10:54:11;16.97;;;15.13;;
15567;SDS011;7885;42.596;23.044;2024-03-02T10:56:38;16.87;;;15.07;;
15567;SDS011;7885;42.596;23.044;2024-03-02T10:59:10;13.83;;;12.47;;
15567;SDS011;7885;42.596;23.044;2024-03-02T11:01:44;16.30;;;14.60;;
15567;SDS011;7885;42.596;23.044;2024-03-02T11:04:14;17.03;;;15.17;;
15567;SDS011;7885;42.596;23.044;2024-03-02T11:06:42;14.07;;;12.63;;
15567;SDS011;7885;42.596;23.044;2024-03-02T11:09:15;12.53;;;11.27;;
15567;SDS011;7885;42.596;23.044;2024-03-02T11:21:23;15.57;;;14.07;;
15567;SDS011;7885;42.596;23.044;2024-03-02T11:23:52;13.53;;;12.23;;
15567;SDS011;7885;42.596;23.044;2024-03-02T11:26:20;13.97;;;12.57;;
15567;SDS011;7885;42.596;23.044;2024-03-02T11:28:49;13.60;;;12.20;;
15567;SDS011;7885;42.596;23.044;2024-03-02T11:31:15;13.93;;;12.60;;
15567;SDS011;7885;42.596;23.044;2024-03-02T11:33:42;13.07;;;11.83;;
15567;SDS011;7885;42.596;23.044;2024-03-02T11:39:32;13.73;;;12.47;;
15567;SDS011;7885;42.596;23.044;2024-03-02T11:42:00;13.50;;;12.20;;
15567;SDS011;7885;42.596;23.044;2024-03-02T11:44:28;13.67;;;12.27;;
15567;SDS011;7885;42.596;23.044;2024-03-02T11:46:57;13.47;;;12.17;;
15567;SDS011;7885;42.596;23.044;2024-03-02T11:49:36;12.63;;;11.43;;
15567;SDS011;7885;42.596;23.044;2024-03-02T11:52:04;12.53;;;11.33;;
15567;SDS011;7885;42.596;23.044;2024-03-02T11:54:34;13.13;;;11.83;;
15567;SDS011;7885;42.596;23.044;2024-03-02T11:57:04;12.30;;;11.20;;
15567;SDS011;7885;42.596;23.044;2024-03-02T11:59:32;12.90;;;11.60;;
15567;SDS011;7885;42.596;23.044;2024-03-02T12:01:59;13.17;;;11.87;;
15567;SDS011;7885;42.596;23.044;2024-03-02T12:04:27;12.37;;;11.27;;
15567;SDS011;7885;42.596;23.044;2024-03-02T12:06:56;14.87;;;13.47;;
15567;SDS011;7885;42.596;23.044;2024-03-02T12:09:25;12.73;;;11.53;;
15567;SDS011;7885;42.596;23.044;2024-03-02T12:12:02;11.53;;;10.43;;
15567;SDS011;7885;42.596;23.044;2024-03-02T12:14:33;11.60;;;10.50;;
15567;SDS011;7885;42.596;23.044;2024-03-02T12:17:01;12.50;;;11.30;;
15567;SDS011;7885;42.596;23.044;2024-03-02T12:19:28;13.70;;;12.30;;
15567;SDS011;7885;42.596;23.044;2024-03-02T12:21:56;13.63;;;12.33;;
15567;SDS011;7885;42.596;23.044;2024-03-02T12:24:23;13.27;;;11.83;;
15567;SDS011;7885;42.596;23.044;2024-03-02T12:26:50;12.97;;;11.60;;
15567;SDS011;7885;42.596;23.044;2024-03-02T12:29:21;12.20;;;11.00;;
15567;SDS011;7885;42.596;23.044;2024-03-02T12:31:48;10.57;;;9.57;;
15567;SDS011;7885;42.596;23.044;2024-03-02T12:34:15;10.77;;;9.77;;
15567;SDS011;7885;42.596;23.044;2024-03-02T12:36:43;11.47;;;10.27;;
15567;SDS011;7885;42.596;23.044;2024-03-02T12:39:12;12.23;;;11.03;;
15567;SDS011;7885;42.596;23.044;2024-03-02T12:41:40;12.10;;;10.90;;
15567;SDS011;7885;42.596;23.044;2024-03-02T12:44:07;10.87;;;9.80;;
15567;SDS011;7885;42.596;23.044;2024-03-02T12:46:36;11.10;;;10.00;;
15567;SDS011;7885;42.596;23.044;2024-03-02T12:49:10;11.27;;;9.57;;
15567;SDS011;7885;42.596;23.044;2024-03-02T12:51:38;14.87;;;11.23;;
15567;SDS011;7885;42.596;23.044;2024-03-02T12:54:06;18.27;;;11.70;;
15567;SDS011;7885;42.596;23.044;2024-03-02T12:56:34;20.20;;;12.00;;
15567;SDS011;7885;42.596;23.044;2024-03-02T12:59:03;23.03;;;12.90;;
15567;SDS011;7885;42.596;23.044;2024-03-02T13:01:30;17.13;;;11.53;;
15567;SDS011;7885;42.596;23.044;2024-03-02T13:03:58;19.50;;;12.57;;
15567;SDS011;7885;42.596;23.044;2024-03-02T13:06:25;16.10;;;11.80;;
15567;SDS011;7885;42.596;23.044;2024-03-02T13:08:54;21.33;;;13.47;;
15567;SDS011;7885;42.596;23.044;2024-03-02T13:11:21;24.07;;;13.37;;
15567;SDS011;7885;42.596;23.044;2024-03-02T13:13:48;20.33;;;12.30;;
15567;SDS011;7885;42.596;23.044;2024-03-02T13:16:15;20.63;;;12.73;;
15567;SDS011;7885;42.596;23.044;2024-03-02T13:18:44;16.67;;;12.33;;
15567;SDS011;7885;42.596;23.044;2024-03-02T13:21:12;13.40;;;11.13;;
15567;SDS011;7885;42.596;23.044;2024-03-02T13:23:39;13.00;;;11.53;;
15567;SDS011;7885;42.596;23.044;2024-03-02T13:26:05;13.50;;;11.07;;
15567;SDS011;7885;42.596;23.044;2024-03-02T13:28:32;12.20;;;10.90;;
15567;SDS011;7885;42.596;23.044;2024-03-02T13:30:59;9.97;;;8.97;;
15567;SDS011;7885;42.596;23.044;2024-03-02T13:33:26;12.70;;;9.97;;
15567;SDS011;7885;42.596;23.044;2024-03-02T13:35:53;13.37;;;11.97;;
15567;SDS011;7885;42.596;23.044;2024-03-02T13:38:21;14.77;;;13.17;;
15567;SDS011;7885;42.596;23.044;2024-03-02T13:40:48;12.10;;;10.90;;
15567;SDS011;7885;42.596;23.044;2024-03-02T13:43:17;12.03;;;10.83;;
15567;SDS011;7885;42.596;23.044;2024-03-02T13:45:44;11.80;;;10.60;;
15567;SDS011;7885;42.596;23.044;2024-03-02T13:48:11;13.73;;;12.33;;
15567;SDS011;7885;42.596;23.044;2024-03-02T13:50:39;11.27;;;10.17;;
15567;SDS011;7885;42.596;23.044;2024-03-02T13:53:06;12.17;;;10.90;;
15567;SDS011;7885;42.596;23.044;2024-03-02T13:55:35;14.13;;;12.73;;
15567;SDS011;7885;42.596;23.044;2024-03-02T13:58:03;12.17;;;10.90;;
15567;SDS011;7885;42.596;23.044;2024-03-02T14:00:30;13.40;;;12.00;;
15567;SDS011;7885;42.596;23.044;2024-03-02T14:02:57;12.17;;;10.87;;
15567;SDS011;7885;42.596;23.044;2024-03-02T14:05:24;12.60;;;11.30;;
15567;SDS011;7885;42.596;23.044;2024-03-02T14:07:51;11.60;;;10.50;;
15567;SDS011;7885;42.596;23.044;2024-03-02T14:10:17;11.30;;;10.20;;
15567;SDS011;7885;42.596;23.044;2024-03-02T14:12:48;9.90;;;9.00;;
15567;SDS011;7885;42.596;23.044;2024-03-02T14:15:15;10.00;;;9.00;;
15567;SDS011;7885;42.596;23.044;2024-03-02T14:17:42;10.30;;;9.23;;
15567;SDS011;7885;42.596;23.044;2024-03-02T14:20:09;11.37;;;10.17;;
15567;SDS011;7885;42.596;23.044;2024-03-02T14:22:38;10.83;;;9.73;;
15567;SDS011;7885;42.596;23.044;2024-03-02T14:25:05;10.03;;;9.03;;
15567;SDS011;7885;42.596;23.044;2024-03-02T14:27:32;10.23;;;8.00;;
15567;SDS011;7885;42.596;23.044;2024-03-02T14:30:02;9.13;;;8.23;;
15567;SDS011;7885;42.596;23.044;2024-03-02T14:32:30;8.73;;;7.93;;
15567;SDS011;7885;42.596;23.044;2024-03-02T14:34:57;8.87;;;8.00;;
15567;SDS011;7885;42.596;23.044;2024-03-02T14:37:23;9.37;;;8.53;;
15567;SDS011;7885;42.596;23.044;2024-03-02T14:39:50;8.50;;;7.70;;
15567;SDS011;7885;42.596;23.044;2024-03-02T14:42:17;8.90;;;7.87;;
15567;SDS011;7885;42.596;23.044;2024-03-02T14:44:44;10.03;;;9.03;;
15567;SDS011;7885;42.596;23.044;2024-03-02T14:47:12;13.00;;;9.27;;
15567;SDS011;7885;42.596;23.044;2024-03-02T14:49:38;8.30;;;7.43;;
15567;SDS011;7885;42.596;23.044;2024-03-02T14:52:06;22.23;;;9.00;;
15567;SDS011;7885;42.596;23.044;2024-03-02T14:54:34;10.33;;;8.83;;
15567;SDS011;7885;42.596;23.044;2024-03-02T14:57:01;11.17;;;10.17;;
15567;SDS011;7885;42.596;23.044;2024-03-02T14:59:28;11.37;;;9.90;;
15567;SDS011;7885;42.596;23.044;2024-03-02T15:01:55;14.03;;;10.47;;
15567;SDS011;7885;42.596;23.044;2024-03-02T15:04:23;12.90;;;10.70;;
15567;SDS011;7885;42.596;23.044;2024-03-02T15:06:52;11.50;;;10.10;;
15567;SDS011;7885;42.596;23.044;2024-03-02T15:09:18;9.33;;;8.43;;
15567;SDS011;7885;42.596;23.044;2024-03-02T15:11:45;7.30;;;6.57;;
15567;SDS011;7885;42.596;23.044;2024-03-02T15:14:12;8.03;;;7.23;;
15567;SDS011;7885;42.596;23.044;2024-03-02T15:16:39;8.00;;;7.20;;
15567;SDS011;7885;42.596;23.044;2024-03-02T15:19:07;8.40;;;7.50;;
15567;SDS011;7885;42.596;23.044;2024-03-02T15:21:35;8.43;;;7.63;;
15567;SDS011;7885;42.596;23.044;2024-03-02T15:24:02;8.23;;;7.07;;
15567;SDS011;7885;42.596;23.044;2024-03-02T15:26:29;8.03;;;7.23;;
15567;SDS011;7885;42.596;23.044;2024-03-02T15:28:55;8.63;;;7.67;;
15567;SDS011;7885;42.596;23.044;2024-03-02T15:31:24;9.33;;;8.43;;
15567;SDS011;7885;42.596;23.044;2024-03-02T15:33:51;9.73;;;8.70;;
15567;SDS011;7885;42.596;23.044;2024-03-02T15:36:18;8.87;;;7.97;;
15567;SDS011;7885;42.596;23.044;2024-03-02T15:38:46;10.93;;;8.13;;
15567;SDS011;7885;42.596;23.044;2024-03-02T15:41:13;9.80;;;8.80;;
15567;SDS011;7885;42.596;23.044;2024-03-02T15:43:40;9.70;;;8.70;;
15567;SDS011;7885;42.596;23.044;2024-03-02T15:46:08;9.33;;;8.33;;
15567;SDS011;7885;42.596;23.044;2024-03-02T15:48:35;9.57;;;7.40;;
15567;SDS011;7885;42.596;23.044;2024-03-02T15:51:01;11.23;;;8.93;;
15567;SDS011;7885;42.596;23.044;2024-03-02T15:53:29;11.20;;;10.10;;
15567;SDS011;7885;42.596;23.044;2024-03-02T15:55:57;12.43;;;11.13;;
15567;SDS011;7885;42.596;23.044;2024-03-02T15:58:25;14.00;;;12.23;;
15567;SDS011;7885;42.596;23.044;2024-03-02T16:00:51;15.37;;;12.30;;
15567;SDS011;7885;42.596;23.044;2024-03-02T16:03:18;15.03;;;13.43;;
15567;SDS011;7885;42.596;23.044;2024-03-02T16:05:45;16.90;;;15.20;;
15567;SDS011;7885;42.596;23.044;2024-03-02T16:08:12;15.70;;;14.00;;
15567;SDS011;7885;42.596;23.044;2024-03-02T16:10:38;16.70;;;14.47;;
15567;SDS011;7885;42.596;23.044;2024-03-02T16:13:07;15.83;;;12.13;;
15567;SDS011;7885;42.596;23.044;2024-03-02T16:15:34;15.57;;;12.43;;
15567;SDS011;7885;42.596;23.044;2024-03-02T16:18:01;13.37;;;11.43;;
15567;SDS011;7885;42.596;23.044;2024-03-02T16:20:27;14.00;;;11.53;;
15567;SDS011;7885;42.596;23.044;2024-03-02T16:22:54;14.77;;;12.30;;
15567;SDS011;7885;42.596;23.044;2024-03-02T16:25:21;13.33;;;11.70;;
15567;SDS011;7885;42.596;23.044;2024-03-02T16:27:49;12.87;;;11.50;;
15567;SDS011;7885;42.596;23.044;2024-03-02T16:30:18;13.20;;;11.23;;
15567;SDS011;7885;42.596;23.044;2024-03-02T16:32:45;13.70;;;11.47;;
15567;SDS011;7885;42.596;23.044;2024-03-02T16:35:12;12.97;;;11.13;;
15567;SDS011;7885;42.596;23.044;2024-03-02T16:37:40;15.17;;;13.53;;
15567;SDS011;7885;42.596;23.044;2024-03-02T16:40:07;15.00;;;13.40;;
15567;SDS011;7885;42.596;23.044;2024-03-02T16:42:34;18.20;;;14.23;;
15567;SDS011;7885;42.596;23.044;2024-03-02T16:45:01;18.10;;;14.00;;
15567;SDS011;7885;42.596;23.044;2024-03-02T16:47:29;15.53;;;12.53;;
15567;SDS011;7885;42.596;23.044;2024-03-02T16:49:56;14.23;;;11.67;;
15567;SDS011;7885;42.596;23.044;2024-03-02T16:52:23;14.77;;;10.87;;
15567;SDS011;7885;42.596;23.044;2024-03-02T16:54:49;13.77;;;10.63;;